Time;durP1;ratioP1;P1;durP2;ratioP2;P2;SDS_P1;SDS_P2;PMS_P1;PMS_P2;Temp;Humidity;BMP_temperature;BMP_pressure;BME280_temperature;BME280_humidity;BME280_pressure;Samples;Min_cycle;Max_cycle;Signal;HPM_P1;HPM_P2
2023/09/18 00:00:57;;;;;;;15.85;14.45;;;;;;;19.52;100.00;100450.84;5037883;28;20037;-63
2023/09/18 00:03:24;;;;;;;16.35;14.95;;;;;;;19.39;100.00;100434.31;5049421;28;20486;-63
2023/09/18 00:05:51;;;;;;;15.35;13.80;;;;;;;19.52;100.00;100441.91;5054322;28;20060;-63
2023/09/18 00:08:17;;;;;;;16.80;15.18;;;;;;;19.47;100.00;100441.56;5038170;28;20028;-62
2023/09/18 00:10:48;;;;;;;18.40;13.75;;;;;;;19.48;100.00;100440.56;5055774;28;20024;-63
2023/09/18 00:13:14;;;;;;;15.50;13.82;;;;;;;19.50;100.00;100438.53;5055837;28;20399;-63
2023/09/18 00:15:40;;;;;;;16.67;15.18;;;;;;;19.48;100.00;100436.03;5055205;28;20021;-63
2023/09/18 00:18:06;;;;;;;16.15;14.32;;;;;;;19.39;100.00;100420.81;5055291;28;20032;-63
2023/09/18 00:20:31;;;;;;;15.60;14.00;;;;;;;19.55;100.00;100413.78;5051670;28;20391;-63
2023/09/18 00:22:57;;;;;;;15.30;13.73;;;;;;;19.48;100.00;100406.34;5054368;28;20068;-63
2023/09/18 00:25:22;;;;;;;14.60;13.20;;;;;;;19.53;100.00;100403.16;5053316;28;20101;-63
2023/09/18 00:27:48;;;;;;;14.90;13.40;;;;;;;19.55;100.00;100393.03;5068914;28;20471;-63
2023/09/18 00:30:17;;;;;;;14.10;12.80;;;;;;;19.59;100.00;100390.84;5060444;28;20037;-63
2023/09/18 00:32:42;;;;;;;17.02;13.02;;;;;;;19.52;100.00;100388.81;5066008;28;20028;-63
2023/09/18 00:35:07;;;;;;;15.65;14.10;;;;;;;19.48;100.00;100378.53;5066870;28;20059;-63
2023/09/18 00:37:33;;;;;;;14.77;13.27;;;;;;;19.47;100.00;100377.69;5048989;28;20353;-63
2023/09/18 00:39:58;;;;;;;14.23;12.75;;;;;;;19.46;100.00;100378.69;5063365;28;20029;-63
2023/09/18 00:42:27;;;;;;;14.50;13.13;;;;;;;19.39;100.00;100374.13;5040793;28;20024;-63
2023/09/18 00:44:52;;;;;;;14.90;12.50;;;;;;;19.43;100.00;100365.53;5054374;28;20068;-63
2023/09/18 00:47:18;;;;;;;13.77;12.38;;;;;;;19.42;100.00;100361.16;5049278;28;20519;-63
2023/09/18 00:49:48;;;;;;;13.95;12.45;;;;;;;19.37;100.00;100347.31;5058693;28;20059;-63
2023/09/18 00:52:15;;;;;;;13.13;11.93;;;;;;;19.44;100.00;100363.66;5056660;28;20048;-64
2023/09/18 00:54:41;;;;;;;12.85;11.68;;;;;;;19.43;100.00;100352.03;5057349;28;20029;-63
2023/09/18 00:57:08;;;;;;;13.05;11.85;;;;;;;19.33;100.00;100345.13;5076974;28;20023;-63
2023/09/18 00:59:34;;;;;;;12.40;11.25;;;;;;;19.41;100.00;100345.13;5036557;28;20079;-63
2023/09/18 01:01:59;;;;;;;12.90;11.55;;;;;;;19.29;100.00;100336.50;5050772;28;20407;-63
2023/09/18 01:04:26;;;;;;;14.48;12.13;;;;;;;19.37;100.00;100336.53;5033651;28;20028;-63
2023/09/18 01:06:53;;;;;;;18.10;12.02;;;;;;;19.41;100.00;100328.94;5050800;28;20071;-63
2023/09/18 01:09:19;;;;;;;14.25;11.70;;;;;;;19.39;100.00;100325.59;5054934;28;20052;-63
2023/09/18 01:11:47;;;;;;;14.25;11.40;;;;;;;19.44;100.00;100317.81;5051257;28;20072;-63
2023/09/18 01:14:16;;;;;;;12.82;10.93;;;;;;;19.44;100.00;100312.44;5047416;28;20085;-63
2023/09/18 01:16:54;;;;;;;15.55;11.25;;;;;;;19.44;100.00;100307.03;5051559;28;20087;-63
2023/09/18 01:19:36;;;;;;;14.63;11.70;;;;;;;19.47;100.00;100294.06;5052372;28;20494;-63
2023/09/18 01:22:02;;;;;;;14.73;11.25;;;;;;;19.45;100.00;100277.22;5066917;28;20064;-63
2023/09/18 01:24:29;;;;;;;12.70;10.25;;;;;;;19.49;100.00;100300.13;5033346;28;20059;-63
2023/09/18 01:26:57;;;;;;;13.98;10.63;;;;;;;19.40;100.00;100294.91;5051492;28;20077;-63
2023/09/18 01:29:25;;;;;;;12.57;10.30;;;;;;;19.53;100.00;100297.97;5053220;28;20028;-63
2023/09/18 01:31:53;;;;;;;12.68;10.25;;;;;;;19.51;100.00;100299.97;5049426;28;20028;-63
2023/09/18 01:34:25;;;;;;;12.68;10.02;;;;;;;19.56;100.00;100307.53;5033494;28;20087;-63
2023/09/18 01:36:55;;;;;;;12.68;9.88;;;;;;;19.57;100.00;100302.00;5050502;28;20028;-63
2023/09/18 01:39:21;;;;;;;12.25;9.90;;;;;;;19.61;100.00;100305.19;5051430;28;20077;-63
2023/09/18 01:41:47;;;;;;;11.90;10.00;;;;;;;19.62;100.00;100309.56;5040336;28;20028;-63
2023/09/18 01:44:13;;;;;;;17.77;9.88;;;;;;;19.61;100.00;100300.63;5052657;28;20059;-62
2023/09/18 01:46:39;;;;;;;12.73;9.73;;;;;;;19.64;100.00;100307.56;5065732;28;20487;-62
2023/09/18 01:49:05;;;;;;;13.60;9.85;;;;;;;19.63;100.00;100300.47;5052007;28;20044;-63
2023/09/18 01:51:30;;;;;;;14.48;9.68;;;;;;;19.64;100.00;100303.00;5058300;28;20463;-63
2023/09/18 01:53:56;;;;;;;13.80;9.40;;;;;;;19.68;100.00;100303.56;5049023;28;20095;-63
2023/09/18 01:56:23;;;;;;;19.00;10.50;;;;;;;19.65;100.00;100304.72;5038452;28;20037;-63
2023/09/18 01:58:48;;;;;;;10.63;9.32;;;;;;;19.69;100.00;100294.44;5035034;28;20087;-63
2023/09/18 02:01:14;;;;;;;11.93;8.70;;;;;;;19.71;100.00;100292.41;5034308;28;20468;-63
2023/09/18 02:03:41;;;;;;;12.35;9.07;;;;;;;19.61;100.00;100279.03;5034184;28;20059;-63
2023/09/18 02:06:10;;;;;;;12.93;9.40;;;;;;;19.65;100.00;100287.69;5040013;28;20437;-63
2023/09/18 02:08:36;;;;;;;13.63;8.90;;;;;;;19.68;100.00;100293.59;5043830;28;20090;-64
2023/09/18 02:11:02;;;;;;;14.90;8.77;;;;;;;19.65;100.00;100293.94;5055476;28;20479;-63
2023/09/18 02:13:28;;;;;;;9.93;8.55;;;;;;;19.63;100.00;100287.81;5055891;28;20716;-63
2023/09/18 02:15:54;;;;;;;10.40;8.77;;;;;;;19.66;100.00;100286.69;5038747;28;20138;-63
2023/09/18 02:18:19;;;;;;;13.38;8.05;;;;;;;19.69;100.00;100284.47;5042378;28;20035;-63
2023/09/18 02:20:48;;;;;;;17.58;8.80;;;;;;;19.70;100.00;100280.75;5057493;28;20112;-63
2023/09/18 02:23:14;;;;;;;;;;;;;;;19.81;100.00;100276.88;5066118;28;20426;-63
2023/09/18 02:25:40;;;;;;;12.48;8.55;;;;;;;19.76;100.00;100267.59;5071217;28;19912;-63
2023/09/18 02:28:06;;;;;;;16.77;8.00;;;;;;;19.73;100.00;100258.81;5052371;28;20023;-63
2023/09/18 02:30:32;;;;;;;12.30;8.00;;;;;;;19.62;100.00;100258.31;5051315;28;20044;-63
2023/09/18 02:32:57;;;;;;;12.65;8.05;;;;;;;19.68;100.00;100246.88;5049755;28;20036;-63
2023/09/18 02:35:22;;;;;;;14.75;8.68;;;;;;;19.69;100.00;100240.47;5037289;28;20020;-63
2023/09/18 02:37:48;;;;;;;12.77;7.85;;;;;;;19.64;100.00;100246.34;5060958;28;20415;-63
2023/09/18 02:40:13;;;;;;;13.00;8.00;;;;;;;19.66;100.00;100244.34;5055770;28;20043;-63
2023/09/18 02:42:39;;;;;;;12.10;7.55;;;;;;;19.69;100.00;100240.47;5063586;28;20388;-63
2023/09/18 02:45:05;;;;;;;13.50;8.10;;;;;;;19.67;100.00;100239.78;5053653;28;20496;-62
2023/09/18 02:47:33;;;;;;;12.50;7.55;;;;;;;19.67;100.00;100223.59;5065984;28;20036;-63
2023/09/18 02:49:59;;;;;;;17.20;8.73;;;;;;;19.67;100.00;100220.91;5052650;28;20028;-63
2023/09/18 02:52:26;;;;;;;11.95;7.60;;;;;;;19.68;100.00;100218.03;5055754;28;20021;-63
2023/09/18 02:54:52;;;;;;;11.85;7.88;;;;;;;19.72;100.00;100219.38;5054093;28;20031;-63
2023/09/18 02:57:18;;;;;;;11.52;8.07;;;;;;;19.76;100.00;100224.44;5040262;28;20479;-63
2023/09/18 02:59:44;;;;;;;15.27;7.85;;;;;;;19.79;100.00;100199.78;5061558;28;20025;-63
2023/09/18 03:02:09;;;;;;;16.02;7.75;;;;;;;19.80;100.00;100188.84;5064325;28;20108;-63
2023/09/18 03:04:35;;;;;;;17.33;7.55;;;;;;;19.74;100.00;100181.44;5055497;28;20472;-62
2023/09/18 03:07:00;;;;;;;13.90;7.78;;;;;;;19.82;100.00;100178.69;5039516;28;20491;-62
2023/09/18 03:09:25;;;;;;;12.95;7.35;;;;;;;19.63;100.00;100157.50;5055178;28;20027;-62
2023/09/18 03:11:51;;;;;;;15.20;8.55;;;;;;;19.79;100.00;100172.81;5059075;28;20016;-62
2023/09/18 03:14:17;;;;;;;17.27;7.60;;;;;;;19.74;100.00;100186.84;5049783;28;20025;-63
2023/09/18 03:16:42;;;;;;;14.57;7.97;;;;;;;19.82;100.00;100167.91;5053562;28;20017;-62
2023/09/18 03:19:07;;;;;;;14.88;8.20;;;;;;;19.81;100.00;100174.31;5049462;28;20116;-63
2023/09/18 03:21:35;;;;;;;14.18;7.70;;;;;;;19.81;100.00;100189.69;5062662;28;20478;-62
2023/09/18 03:24:00;;;;;;;17.15;7.55;;;;;;;19.81;100.00;100178.88;5057306;28;20036;-62
2023/09/18 03:26:28;;;;;;;17.15;8.27;;;;;;;19.84;100.00;100189.34;5052975;28;20029;-63
2023/09/18 03:28:54;;;;;;;17.05;7.47;;;;;;;19.83;100.00;100185.78;5064901;28;21412;-62
2023/09/18 03:31:19;;;;;;;19.05;7.70;;;;;;;19.78;100.00;100198.97;5060073;28;20029;-63
2023/09/18 03:33:46;;;;;;;16.00;7.78;;;;;;;19.82;100.00;100202.16;5051819;28;20040;-62
2023/09/18 03:36:14;;;;;;;18.90;8.25;;;;;;;19.84;100.00;100203.66;5032580;28;20037;-63
2023/09/18 03:38:40;;;;;;;16.45;9.43;;;;;;;19.81;100.00;100205.88;5037257;28;20021;-63
2023/09/18 03:41:05;;;;;;;15.98;8.43;;;;;;;19.75;100.00;100185.81;5035767;28;20028;-63
2023/09/18 03:43:30;;;;;;;12.95;8.52;;;;;;;19.77;100.00;100197.28;5060919;28;20384;-63
2023/09/18 03:46:03;;;;;;;17.48;8.45;;;;;;;19.77;100.00;100224.28;5063906;28;20084;-63
2023/09/18 03:48:30;;;;;;;12.73;7.88;;;;;;;19.79;100.00;100205.19;5038262;28;20021;-63
2023/09/18 03:50:56;;;;;;;17.40;8.30;;;;;;;19.75;100.00;100193.91;5036485;28;20391;-63
2023/09/18 03:53:21;;;;;;;12.50;7.82;;;;;;;19.78;100.00;100196.25;5061729;28;20028;-63
2023/09/18 03:55:48;;;;;;;9.18;7.70;;;;;;;19.78;100.00;100200.81;5050295;28;20025;-63
2023/09/18 03:58:15;;;;;;;15.57;8.60;;;;;;;19.76;100.00;100190.19;5063934;28;20488;-63
2023/09/18 04:00:41;;;;;;;12.73;8.05;;;;;;;19.77;100.00;100204.53;5054534;28;20388;-62
2023/09/18 04:03:09;;;;;;;21.85;8.65;;;;;;;19.71;100.00;100200.69;5059131;28;20062;-62
2023/09/18 04:05:34;;;;;;;11.43;9.07;;;;;;;19.74;100.00;100220.06;5031087;28;20027;-63
2023/09/18 04:08:00;;;;;;;16.02;8.98;;;;;;;19.73;100.00;100231.00;5054945;28;20115;-63
2023/09/18 04:10:26;;;;;;;11.77;8.73;;;;;;;19.69;100.00;100219.72;5052281;28;20399;-63
2023/09/18 04:12:52;;;;;;;16.20;9.27;;;;;;;19.67;100.00;100219.03;5064968;28;20399;-63
2023/09/18 04:15:18;;;;;;;14.00;9.55;;;;;;;19.64;100.00;100213.13;5059367;28;20017;-63
2023/09/18 04:17:44;;;;;;;14.05;9.52;;;;;;;19.66;100.00;100209.28;5052475;28;20040;-63
2023/09/18 04:20:10;;;;;;;13.73;9.57;;;;;;;19.60;100.00;100204.53;5054581;28;20024;-63
2023/09/18 04:22:36;;;;;;;15.52;9.65;;;;;;;19.57;100.00;100193.25;5032378;28;20088;-63
2023/09/18 04:25:05;;;;;;;13.15;9.63;;;;;;;19.55;100.00;100184.47;5047889;28;20029;-63
2023/09/18 04:27:31;;;;;;;23.63;11.13;;;;;;;19.55;100.00;100185.31;5050360;28;20017;-63
2023/09/18 04:29:56;;;;;;;12.55;9.73;;;;;;;19.54;100.00;100183.63;5038039;28;20103;-63
2023/09/18 04:32:21;;;;;;;15.68;10.30;;;;;;;19.53;100.00;100184.66;5049905;28;20536;-63
2023/09/18 04:34:49;;;;;;;14.55;10.45;;;;;;;19.50;100.00;100174.19;5019851;28;20112;-63
2023/09/18 04:37:17;;;;;;;14.32;10.80;;;;;;;19.50;100.00;100177.75;5018313;28;20017;-63
2023/09/18 04:39:42;;;;;;;14.48;10.40;;;;;;;19.50;100.00;100160.69;5019707;28;20037;-64
2023/09/18 04:42:07;;;;;;;14.70;10.73;;;;;;;19.48;100.00;100138.47;5032354;28;20414;-63
2023/09/18 04:44:33;;;;;;;13.20;10.45;;;;;;;19.49;100.00;100132.88;5028348;28;20072;-62
2023/09/18 04:46:58;;;;;;;15.77;11.23;;;;;;;19.50;100.00;100131.03;5050327;28;20499;-63
2023/09/18 04:49:24;;;;;;;17.40;11.30;;;;;;;19.46;100.00;100130.53;5051516;28;20102;-63
2023/09/18 04:51:51;;;;;;;18.63;11.32;;;;;;;19.45;100.00;100117.25;5050820;28;20029;-63
2023/09/18 04:54:17;;;;;;;14.45;10.18;;;;;;;19.39;100.00;100109.84;5054509;28;20511;-62
2023/09/18 04:56:43;;;;;;;18.80;12.10;;;;;;;19.44;100.00;100120.94;5053956;28;20029;-62
2023/09/18 04:59:08;;;;;;;16.27;10.82;;;;;;;19.40;100.00;100108.81;5053883;28;20027;-63
2023/09/18 05:01:33;;;;;;;16.63;11.90;;;;;;;19.43;100.00;100121.94;5051151;28;20775;-63
2023/09/18 05:04:01;;;;;;;16.40;10.65;;;;;;;19.39;100.00;100112.53;5056611;28;20024;-63
2023/09/18 05:06:26;;;;;;;15.98;10.93;;;;;;;19.33;100.00;100107.84;5046253;28;20108;-63
2023/09/18 05:08:53;;;;;;;15.00;10.77;;;;;;;19.36;100.00;100116.41;5050942;28;20452;-63
2023/09/18 05:11:18;;;;;;;11.93;9.77;;;;;;;19.35;100.00;100119.28;5055500;28;20054;-63
2023/09/18 05:13:44;;;;;;;13.50;9.65;;;;;;;19.33;100.00;100122.16;5061292;28;20020;-63
2023/09/18 05:16:09;;;;;;;12.73;8.10;;;;;;;19.35;100.00;100114.72;5044334;28;20035;-62
2023/09/18 05:18:35;;;;;;;10.85;7.82;;;;;;;19.29;100.00;100128.88;5050758;28;20025;-63
2023/09/18 05:21:01;;;;;;;7.97;6.63;;;;;;;19.27;100.00;100136.31;5058118;28;20041;-63
2023/09/18 05:23:31;;;;;;;8.68;6.32;;;;;;;19.26;100.00;100140.84;5052600;28;20029;-63
2023/09/18 05:25:57;;;;;;;10.80;5.93;;;;;;;19.26;100.00;100134.63;5061521;28;20024;-63
2023/09/18 05:28:22;;;;;;;7.60;5.50;;;;;;;19.23;100.00;100143.88;5035776;28;20103;-63
2023/09/18 05:30:48;;;;;;;12.40;5.43;;;;;;;19.24;100.00;100136.66;5066083;28;20066;-63
2023/09/18 05:33:13;;;;;;;5.82;5.05;;;;;;;19.23;100.00;100126.88;5064928;28;20032;-63
2023/09/18 05:35:44;;;;;;;8.45;5.05;;;;;;;19.21;100.00;100132.44;5041131;28;20025;-63
2023/09/18 05:38:13;;;;;;;9.13;5.10;;;;;;;19.20;100.00;100136.13;5046286;28;20062;-63
2023/09/18 05:40:38;;;;;;;9.05;4.20;;;;;;;19.14;100.00;100126.03;5066055;28;20074;-63
2023/09/18 05:43:04;;;;;;;8.70;4.07;;;;;;;19.19;100.00;100137.16;5069624;28;20029;-63
2023/09/18 05:45:31;;;;;;;8.43;4.13;;;;;;;19.17;100.00;100135.63;5035871;28;20144;-63
2023/09/18 05:48:05;;;;;;;4.95;3.60;;;;;;;19.13;100.00;100148.63;5060883;28;20123;-63
2023/09/18 05:50:37;;;;;;;5.90;3.80;;;;;;;19.12;100.00;100151.47;5037683;28;20020;-63
2023/09/18 05:53:03;;;;;;;6.07;3.85;;;;;;;19.15;100.00;100151.13;5051297;28;20023;-63
2023/09/18 05:55:33;;;;;;;4.93;3.40;;;;;;;19.09;100.00;100141.91;5052716;28;20076;-63
2023/09/18 05:57:59;;;;;;;8.18;3.40;;;;;;;19.12;100.00;100173.91;5063982;28;20082;-63
2023/09/18 06:00:27;;;;;;;7.43;3.28;;;;;;;19.05;100.00;100151.31;5068327;28;20531;-63
2023/09/18 06:02:52;;;;;;;4.68;3.45;;;;;;;19.08;100.00;100158.22;5049936;28;20033;-63
2023/09/18 06:05:21;;;;;;;6.22;3.55;;;;;;;19.10;100.00;100170.53;5066044;28;20025;-63
2023/09/18 06:07:48;;;;;;;6.88;3.42;;;;;;;19.10;100.00;100154.34;5054232;28;20115;-63
2023/09/18 06:10:13;;;;;;;6.60;3.00;;;;;;;19.10;100.00;100165.13;5068378;28;20028;-63
2023/09/18 06:12:39;;;;;;;5.45;3.05;;;;;;;19.06;100.00;100180.81;5062738;28;20020;-63
2023/09/18 06:15:11;;;;;;;8.38;4.20;;;;;;;19.03;100.00;100166.81;5052292;28;20083;-63
2023/09/18 06:17:41;;;;;;;3.53;2.70;;;;;;;19.02;100.00;100174.06;5082616;28;20032;-63
2023/09/18 06:20:12;;;;;;;5.10;3.10;;;;;;;18.99;100.00;100185.19;5051889;28;20029;-63
2023/09/18 06:22:38;;;;;;;5.75;3.08;;;;;;;19.02;100.00;100168.66;5036759;28;20032;-63
2023/09/18 06:25:05;;;;;;;6.25;2.83;;;;;;;19.01;100.00;100185.03;5033109;28;20025;-63
2023/09/18 06:27:32;;;;;;;5.22;3.30;;;;;;;19.00;100.00;100181.50;5051228;28;20055;-63
2023/09/18 06:29:57;;;;;;;5.57;3.10;;;;;;;18.99;100.00;100190.56;5072278;28;20035;-62
2023/09/18 06:32:23;;;;;;;4.10;3.20;;;;;;;18.97;100.00;100187.22;5033936;28;20024;-63
2023/09/18 06:34:48;;;;;;;7.78;3.17;;;;;;;18.99;100.00;100181.63;5053818;28;20111;-63
2023/09/18 06:37:14;;;;;;;4.35;3.28;;;;;;;18.98;100.00;100185.34;5050178;28;20028;-63
2023/09/18 06:39:39;;;;;;;4.05;2.88;;;;;;;19.04;100.00;100193.59;5058406;28;20025;-63
2023/09/18 06:42:07;;;;;;;6.93;3.08;;;;;;;19.04;100.00;100200.84;5065508;28;20417;-63
2023/09/18 06:44:32;;;;;;;4.15;3.10;;;;;;;19.03;100.00;100200.03;5055711;28;20519;-62
2023/09/18 06:46:58;;;;;;;3.75;2.90;;;;;;;19.06;100.00;100207.78;5032776;28;20356;-63
2023/09/18 06:49:24;;;;;;;4.85;3.05;;;;;;;19.03;100.00;100197.31;5052616;28;20072;-63
2023/09/18 06:51:49;;;;;;;5.85;3.10;;;;;;;19.05;100.00;100206.06;5029236;28;20087;-63
2023/09/18 06:54:17;;;;;;;4.78;3.10;;;;;;;19.08;100.00;100214.84;5054795;28;20073;-63
2023/09/18 06:56:45;;;;;;;6.10;3.13;;;;;;;19.10;100.00;100227.13;5034228;28;20094;-63
2023/09/18 06:59:12;;;;;;;5.47;3.10;;;;;;;19.16;100.00;100231.03;5052021;28;20343;-64
2023/09/18 07:01:41;;;;;;;5.20;3.33;;;;;;;19.14;100.00;100223.09;5056521;28;20412;-63
2023/09/18 07:04:06;;;;;;;8.93;3.30;;;;;;;19.15;100.00;100238.28;5037279;28;20032;-62
2023/09/18 07:06:34;;;;;;;5.40;2.88;;;;;;;19.13;100.00;100218.72;5034529;28;20440;-62
2023/09/18 07:08:59;;;;;;;4.28;2.80;;;;;;;19.10;100.00;100210.13;5053575;28;20383;-63
2023/09/18 07:11:25;;;;;;;3.70;2.80;;;;;;;19.19;100.00;100225.28;5063883;28;20020;-63
2023/09/18 07:13:51;;;;;;;5.68;2.80;;;;;;;19.12;100.00;100218.88;5047764;28;20033;-63
2023/09/18 07:16:16;;;;;;;3.83;2.80;;;;;;;19.14;100.00;100225.78;5060510;28;20025;-63
2023/09/18 07:18:41;;;;;;;4.10;2.75;;;;;;;19.13;100.00;100224.09;5069658;28;20439;-63
2023/09/18 07:21:07;;;;;;;5.32;3.42;;;;;;;19.16;100.00;100223.78;5051090;28;20428;-63
2023/09/18 07:23:36;;;;;;;7.55;3.13;;;;;;;19.14;100.00;100215.00;5050905;28;20029;-63
2023/09/18 07:26:02;;;;;;;;;;;;;;;19.31;100.00;100239.28;5051544;28;20082;-63
2023/09/18 07:28:27;;;;;;;4.35;2.85;;;;;;;19.19;100.00;100223.44;5044393;28;20132;-63
2023/09/18 07:30:52;;;;;;;7.47;3.10;;;;;;;19.23;100.00;100245.50;5054363;28;20148;-63
2023/09/18 07:33:19;;;;;;;3.78;2.78;;;;;;;19.26;100.00;100245.16;5038968;28;20029;-63
2023/09/18 07:35:51;;;;;;;9.68;3.17;;;;;;;19.26;100.00;100245.16;5048852;28;20567;-63
2023/09/18 07:38:18;;;;;;;7.72;3.35;;;;;;;19.22;100.00;100235.75;5045667;28;20032;-63
2023/09/18 07:40:44;;;;;;;6.20;2.92;;;;;;;19.25;100.00;100249.72;5042732;28;20061;-63
2023/09/18 07:43:09;;;;;;;5.15;3.08;;;;;;;19.25;100.00;100256.97;5034890;28;20477;-63
2023/09/18 07:45:35;;;;;;;2.92;2.67;;;;;;;19.21;100.00;100237.59;5051806;28;20095;-63
2023/09/18 07:48:00;;;;;;;8.80;2.97;;;;;;;19.31;100.00;100250.06;5043541;28;20029;-63
2023/09/18 07:50:28;;;;;;;7.55;3.00;;;;;;;19.27;100.00;100252.25;5052289;28;20033;-63
2023/09/18 07:52:54;;;;;;;8.38;2.83;;;;;;;19.35;100.00;100246.84;5053080;28;20440;-64
2023/09/18 07:55:19;;;;;;;7.40;2.70;;;;;;;19.34;100.00;100247.88;5052668;28;20059;-63
2023/09/18 07:57:45;;;;;;;4.93;2.70;;;;;;;19.38;100.00;100248.38;5053194;28;20031;-63
2023/09/18 08:00:13;;;;;;;7.20;3.05;;;;;;;19.30;100.00;100227.66;5034966;28;20380;-64
2023/09/18 08:02:39;;;;;;;4.85;3.30;;;;;;;19.37;100.00;100235.91;5049109;28;20029;-63
2023/09/18 08:05:08;;;;;;;4.38;3.08;;;;;;;19.31;99.25;100237.44;5052972;28;20025;-63
2023/09/18 08:07:35;;;;;;;5.63;2.85;;;;;;;19.38;99.49;100253.75;5050744;28;20112;-63
2023/09/18 08:10:08;;;;;;;6.70;3.15;;;;;;;19.35;100.00;100252.25;5040353;28;20043;-63
2023/09/18 08:12:34;;;;;;;6.63;3.13;;;;;;;19.31;99.39;100256.31;5052133;28;20032;-63
2023/09/18 08:15:02;;;;;;;4.82;2.92;;;;;;;19.33;98.75;100248.91;5052537;28;20021;-63
2023/09/18 08:17:28;;;;;;;5.63;2.80;;;;;;;19.30;98.80;100241.16;5066733;28;20092;-62
2023/09/18 08:19:54;;;;;;;6.32;3.05;;;;;;;19.28;98.95;100244.00;5050665;28;20059;-63
2023/09/18 08:22:21;;;;;;;4.97;3.05;;;;;;;19.40;98.02;100262.53;5039322;28;20084;-63
2023/09/18 08:24:52;;;;;;;6.07;3.10;;;;;;;19.51;98.26;100260.34;5038361;28;20063;-63
2023/09/18 08:27:18;;;;;;;6.30;3.58;;;;;;;19.50;97.01;100257.81;5043083;28;20424;-63
2023/09/18 08:29:45;;;;;;;4.57;2.88;;;;;;;19.68;97.48;100273.88;5040867;28;20063;-63
2023/09/18 08:32:10;;;;;;;4.57;3.08;;;;;;;19.86;96.84;100281.78;5048020;28;20446;-63
2023/09/18 08:34:36;;;;;;;4.35;2.92;;;;;;;19.96;94.37;100294.06;5052150;28;20020;-63
2023/09/18 08:37:02;;;;;;;6.20;2.90;;;;;;;19.94;95.24;100298.81;5068014;28;20041;-63
2023/09/18 08:39:28;;;;;;;5.53;3.53;;;;;;;19.88;93.75;100295.91;5051750;28;20099;-63
2023/09/18 08:41:58;;;;;;;6.15;3.33;;;;;;;19.95;94.14;100300.47;5066482;28;20033;-63
2023/09/18 08:44:26;;;;;;;6.10;3.13;;;;;;;19.98;94.16;100293.91;5052103;28;20028;-63
2023/09/18 08:46:54;;;;;;;4.90;2.70;;;;;;;20.08;93.99;100318.84;5051597;28;20182;-63
2023/09/18 08:49:21;;;;;;;4.57;2.90;;;;;;;20.06;93.08;100290.31;5052115;28;20401;-63
2023/09/18 08:51:50;;;;;;;3.63;2.88;;;;;;;20.19;92.61;100301.44;5013509;28;20029;-63
2023/09/18 08:54:18;;;;;;;;;;;;;;;20.37;92.75;100302.06;5045620;28;20060;-63
2023/09/18 08:56:44;;;;;;;4.78;3.10;;;;;;;20.28;91.11;100288.75;5051026;28;20384;-63
2023/09/18 08:59:10;;;;;;;3.65;3.33;;;;;;;20.39;90.79;100296.50;5034045;28;20017;-63
2023/09/18 09:01:36;;;;;;;4.53;3.20;;;;;;;20.43;89.49;100312.16;5052189;28;20399;-63
2023/09/18 09:04:01;;;;;;;5.30;3.03;;;;;;;20.54;89.95;100293.94;5051774;28;20029;-62
2023/09/18 09:06:27;;;;;;;4.22;3.13;;;;;;;20.56;88.97;100286.47;5050870;28;20017;-63
2023/09/18 09:08:52;;;;;;;7.28;3.25;;;;;;;20.81;88.78;100292.63;5046347;28;20123;-63
2023/09/18 09:11:20;;;;;;;5.35;2.90;;;;;;;20.87;88.54;100302.72;5060080;28;20154;-63
2023/09/18 09:13:46;;;;;;;5.93;2.90;;;;;;;21.13;88.48;100290.75;5051234;28;20523;-63
2023/09/18 09:16:12;;;;;;;5.80;3.42;;;;;;;21.24;87.23;100298.44;5051402;28;20147;-64
2023/09/18 09:18:50;;;;;;;7.53;3.25;;;;;;;21.37;86.69;100304.13;5051645;28;20036;-62
2023/09/18 09:21:16;;;;;;;4.90;3.17;;;;;;;21.32;84.90;100309.19;5067097;28;20124;-63
2023/09/18 09:23:51;;;;;;;5.93;2.85;;;;;;;21.38;86.49;100327.44;5065647;28;20029;-63
2023/09/18 09:26:18;;;;;;;5.88;3.15;;;;;;;21.33;86.41;100319.00;5056223;28;20503;-62
2023/09/18 09:28:45;;;;;;;6.78;3.33;;;;;;;21.25;84.99;100319.91;5056768;28;20024;-63
2023/09/18 09:31:10;;;;;;;7.60;2.95;;;;;;;21.21;84.84;100323.16;5070737;28;20472;-63
2023/09/18 09:33:53;;;;;;;7.05;3.95;;;;;;;21.19;85.08;100326.03;5046215;28;20036;-63
2023/09/18 09:36:22;;;;;;;7.82;3.10;;;;;;;21.21;84.61;100320.47;5050958;28;20032;-64
2023/09/18 09:38:49;;;;;;;5.75;3.40;;;;;;;21.20;83.81;100321.44;5045997;28;20100;-63
2023/09/18 09:41:15;;;;;;;5.50;3.45;;;;;;;21.10;85.14;100327.94;5059600;28;20024;-63
2023/09/18 09:43:42;;;;;;;5.50;2.97;;;;;;;21.16;85.28;100320.97;5049601;28;20017;-63
2023/09/18 09:46:19;;;;;;;6.47;3.50;;;;;;;21.12;84.57;100310.69;5027261;28;20416;-63
2023/09/18 09:49:01;;;;;;;8.63;3.40;;;;;;;21.20;84.49;100314.19;5068686;28;20028;-63
2023/09/18 09:51:27;;;;;;;7.15;3.20;;;;;;;21.14;84.14;100309.47;5039683;28;20032;-63
2023/09/18 09:53:52;;;;;;;7.07;3.28;;;;;;;21.05;84.80;100299.75;5063805;28;20048;-63
2023/09/18 09:56:19;;;;;;;10.82;3.45;;;;;;;21.08;85.63;100316.44;5040907;28;20021;-64
2023/09/18 09:58:59;;;;;;;4.72;3.13;;;;;;;21.05;85.96;100315.97;5059198;28;20017;-63
2023/09/18 10:01:27;;;;;;;5.22;2.95;;;;;;;21.04;85.44;100317.84;5056129;28;20375;-63
2023/09/18 10:03:55;;;;;;;6.30;3.55;;;;;;;21.07;83.86;100319.34;5065183;28;20033;-63
2023/09/18 10:06:21;;;;;;;10.48;3.30;;;;;;;21.21;85.08;100324.00;5055920;28;20535;-63
2023/09/18 10:08:47;;;;;;;4.72;3.20;;;;;;;21.34;84.79;100331.50;5042457;28;20032;-63
2023/09/18 10:11:16;;;;;;;7.63;3.45;;;;;;;21.42;84.26;100338.78;5049864;28;20395;-63
2023/09/18 10:13:53;;;;;;;6.70;3.30;;;;;;;21.43;84.75;100341.28;5051211;28;20048;-63
2023/09/18 10:16:25;;;;;;;4.20;3.20;;;;;;;21.42;83.27;100341.47;5032923;28;20032;-63
2023/09/18 10:19:14;;;;;;;4.93;3.15;;;;;;;21.36;83.01;100334.06;5049285;28;20108;-64
2023/09/18 10:22:14;;;;;;;7.07;3.63;;;;;;;21.36;83.25;100334.91;5030979;28;20357;-63
2023/09/18 10:24:43;;;;;;;5.38;3.28;;;;;;;21.45;82.99;100336.53;5047116;28;20079;-63
2023/09/18 10:27:13;;;;;;;4.03;3.42;;;;;;;21.64;82.15;100329.78;5050136;28;20065;-64
2023/09/18 10:29:41;;;;;;;5.43;3.30;;;;;;;21.82;80.54;100343.00;5057617;28;20029;-63
2023/09/18 10:32:08;;;;;;;7.35;3.10;;;;;;;21.90;80.42;100339.38;5033873;28;20040;-63
2023/09/18 10:34:37;;;;;;;5.40;3.30;;;;;;;21.98;79.31;100348.28;5036719;28;20062;-63
2023/09/18 10:37:07;;;;;;;6.93;3.30;;;;;;;21.83;79.22;100346.56;5031185;28;20369;-63
2023/09/18 10:39:35;;;;;;;5.63;3.38;;;;;;;21.58;80.32;100345.91;5057133;28;20029;-63
2023/09/18 10:42:03;;;;;;;10.55;3.95;;;;;;;21.53;81.65;100358.13;5047527;28;20021;-63
2023/09/18 10:44:31;;;;;;;11.35;5.00;;;;;;;21.43;80.30;100348.56;5058878;28;20497;-63
2023/09/18 10:46:58;;;;;;;7.00;3.47;;;;;;;21.43;82.27;100348.56;5055070;28;20049;-63
2023/09/18 10:49:24;;;;;;;5.40;3.50;;;;;;;21.35;80.89;100360.25;5050196;28;20662;-64
2023/09/18 10:51:53;;;;;;;6.07;3.65;;;;;;;21.29;81.67;100344.72;5056571;28;20033;-63
2023/09/18 10:54:24;;;;;;;6.03;3.97;;;;;;;21.43;81.47;100329.63;5055058;28;20071;-63
2023/09/18 10:56:50;;;;;;;9.30;3.90;;;;;;;21.49;80.36;100342.44;5051942;28;20499;-63
2023/09/18 10:59:17;;;;;;;6.82;4.05;;;;;;;21.60;80.23;100325.78;5064933;28;20055;-63
2023/09/18 11:01:43;;;;;;;10.20;3.95;;;;;;;21.73;79.93;100325.97;5051091;28;20084;-64
2023/09/18 11:04:10;;;;;;;8.07;4.20;;;;;;;22.07;78.85;100327.38;5053784;28;20032;-63
2023/09/18 11:06:54;;;;;;;7.95;3.90;;;;;;;22.67;76.73;100339.94;5049253;28;20028;-63
2023/09/18 11:09:23;;;;;;;6.95;3.45;;;;;;;23.12;73.71;100337.22;5057512;28;20056;-64
2023/09/18 11:11:56;;;;;;;7.70;3.80;;;;;;;23.31;70.49;100320.28;5049201;28;20033;-64
2023/09/18 11:14:22;;;;;;;6.88;3.78;;;;;;;23.80;69.93;100330.41;5053573;28;20020;-63